Time;durP1;ratioP1;P1;durP2;ratioP2;P2;SDS_P1;SDS_P2;PMS_P1;PMS_P2;Temp;Humidity;BMP_temperature;BMP_pressure;BME280_temperature;BME280_humidity;BME280_pressure;Samples;Min_cycle;Max_cycle;Signal;HPM_P1;HPM_P2
2022/08/15 00:00:12;;;;;;;8.25;5.40;;;24.90;58.90;;;;;;5091501;28;20423;-65
2022/08/15 00:02:42;;;;;;;7.15;4.85;;;24.90;58.90;;;;;;5091945;28;20048;-65
2022/08/15 00:05:08;;;;;;;6.40;4.82;;;24.90;59.00;;;;;;5092078;28;20032;-64
2022/08/15 00:07:34;;;;;;;7.63;5.50;;;24.90;59.00;;;;;;5090697;28;20450;-64
2022/08/15 00:09:59;;;;;;;7.05;5.07;;;24.90;59.00;;;;;;5090652;28;20047;-65
2022/08/15 00:12:25;;;;;;;7.82;5.35;;;24.90;59.10;;;;;;5091373;28;20051;-65
2022/08/15 00:14:52;;;;;;;7.65;5.60;;;24.90;59.10;;;;;;5091055;28;20085;-64
2022/08/15 00:17:17;;;;;;;6.65;5.05;;;24.90;59.10;;;;;;5091921;28;20118;-64
2022/08/15 00:19:47;;;;;;;6.40;5.00;;;24.90;59.20;;;;;;5091822;28;20066;-64
2022/08/15 00:22:17;;;;;;;7.43;5.15;;;24.90;59.30;;;;;;5091465;28;20371;-65
2022/08/15 00:24:43;;;;;;;6.80;5.15;;;24.90;59.30;;;;;;5091874;28;20492;-64
2022/08/15 00:27:09;;;;;;;7.07;5.13;;;24.90;59.30;;;;;;5091609;28;20067;-65
2022/08/15 00:29:35;;;;;;;7.05;5.55;;;24.90;59.40;;;;;;5090946;28;20048;-64
2022/08/15 00:32:01;;;;;;;7.07;4.97;;;24.90;59.40;;;;;;5091813;28;20473;-64
2022/08/15 00:34:27;;;;;;;8.05;5.70;;;24.90;59.40;;;;;;5092074;28;20040;-65
2022/08/15 00:36:52;;;;;;;7.43;5.10;;;24.90;59.50;;;;;;5094965;28;20246;-64
2022/08/15 00:39:19;;;;;;;7.03;5.22;;;24.90;59.50;;;;;;5095314;28;20498;-65
2022/08/15 00:41:47;;;;;;;7.25;5.50;;;24.90;59.50;;;;;;5095092;28;20088;-64
2022/08/15 00:44:34;;;;;;;6.70;5.20;;;24.90;59.60;;;;;;5093220;28;20094;-64
2022/08/15 00:47:05;;;;;;;6.55;4.97;;;24.90;59.60;;;;;;5095203;28;20100;-65
2022/08/15 00:49:31;;;;;;;7.22;5.72;;;24.90;59.70;;;;;;5094325;28;20044;-64
2022/08/15 00:52:14;;;;;;;8.20;5.18;;;24.90;59.70;;;;;;5094997;28;20424;-64
2022/08/15 00:54:41;;;;;;;7.05;5.32;;;24.90;59.70;;;;;;5094112;28;20471;-64
2022/08/15 00:57:28;;;;;;;6.70;5.25;;;24.90;59.70;;;;;;5092968;28;20040;-65
2022/08/15 00:59:55;;;;;;;7.15;5.45;;;24.90;59.70;;;;;;5095093;28;20048;-65
2022/08/15 01:02:27;;;;;;;6.13;5.18;;;24.90;59.80;;;;;;5093465;28;20036;-65
2022/08/15 01:04:52;;;;;;;7.47;5.35;;;24.80;59.80;;;;;;5093058;28;20044;-65
2022/08/15 01:07:18;;;;;;;7.20;5.85;;;24.90;59.80;;;;;;5094459;28;20400;-65
2022/08/15 01:09:44;;;;;;;7.57;4.85;;;24.90;59.80;;;;;;5094958;28;20097;-65
2022/08/15 01:12:13;;;;;;;7.07;5.50;;;24.90;59.80;;;;;;5093855;28;20488;-65
2022/08/15 01:14:40;;;;;;;6.38;5.28;;;24.90;59.80;;;;;;5094668;28;20062;-65
2022/08/15 01:17:06;;;;;;;7.97;5.85;;;24.90;59.80;;;;;;5094596;28;20502;-65
2022/08/15 01:19:34;;;;;;;7.40;5.65;;;24.90;59.80;;;;;;5092329;28;20035;-65
2022/08/15 01:22:05;;;;;;;8.02;5.65;;;24.90;59.90;;;;;;5094922;28;20048;-65
2022/08/15 01:24:47;;;;;;;7.93;5.30;;;24.90;60.40;;;;;;5093853;28;20044;-65
2022/08/15 01:27:13;;;;;;;6.70;5.07;;;24.90;59.90;;;;;;5092820;28;20051;-65
2022/08/15 01:29:38;;;;;;;7.85;5.40;;;24.80;59.80;;;;;;5093377;28;20040;-65
2022/08/15 01:32:04;;;;;;;7.07;5.65;;;24.80;59.80;;;;;;5093791;28;20062;-65
2022/08/15 01:34:30;;;;;;;6.63;5.30;;;24.80;59.80;;;;;;5094118;28;20040;-65
2022/08/15 01:36:56;;;;;;;7.80;5.53;;;24.80;59.80;;;;;;5094282;28;20032;-65
2022/08/15 01:39:37;;;;;;;7.78;5.47;;;24.80;59.80;;;;;;5093068;28;20407;-65
2022/08/15 01:42:06;;;;;;;8.32;5.88;;;24.80;59.80;;;;;;5092907;28;20055;-65
2022/08/15 01:44:52;;;;;;;7.88;5.50;;;24.80;59.90;;;;;;5093699;28;20442;-65
2022/08/15 01:47:21;;;;;;;7.68;5.60;;;24.80;59.80;;;;;;5091947;28;20048;-65
2022/08/15 01:49:51;;;;;;;8.20;6.20;;;24.80;59.80;;;;;;5092716;28;20044;-65
2022/08/15 01:52:17;;;;;;;6.22;5.13;;;24.80;59.90;;;;;;5093634;28;20050;-65
2022/08/15 01:54:42;;;;;;;6.97;5.60;;;24.80;60.50;;;;;;5109000;28;20119;-65
2022/08/15 01:57:08;;;;;;;6.50;5.13;;;24.80;59.90;;;;;;5093805;28;20039;-65
2022/08/15 01:59:33;;;;;;;8.38;5.60;;;24.80;59.90;;;;;;5092621;28;20047;-65
2022/08/15 02:02:02;;;;;;;6.70;5.25;;;24.80;59.90;;;;;;5093960;28;20090;-65
2022/08/15 02:04:28;;;;;;;;;;;24.80;60.00;;;;;;5092536;28;20046;-65
2022/08/15 02:06:59;;;;;;;7.10;5.18;;;24.80;59.90;;;;;;5092556;28;20349;-65
2022/08/15 02:09:24;;;;;;;7.60;5.72;;;24.80;60.00;;;;;;5093391;28;20044;-64
2022/08/15 02:11:50;;;;;;;7.47;5.30;;;24.80;60.00;;;;;;5093622;28;20126;-65
2022/08/15 02:14:16;;;;;;;8.15;5.30;;;24.80;60.00;;;;;;5091612;28;20040;-65
2022/08/15 02:16:42;;;;;;;6.43;5.28;;;24.80;60.10;;;;;;5093487;28;20082;-65
2022/08/15 02:19:09;;;;;;;8.02;5.85;;;24.80;60.10;;;;;;5093434;28;20126;-65
2022/08/15 02:21:35;;;;;;;7.15;5.90;;;24.80;60.10;;;;;;5092461;28;20071;-65
2022/08/15 02:24:01;;;;;;;7.38;5.40;;;24.80;60.10;;;;;;5093227;28;20086;-65
2022/08/15 02:26:27;;;;;;;9.02;5.75;;;24.80;60.20;;;;;;5092848;28;20036;-65
2022/08/15 02:28:52;;;;;;;7.30;5.43;;;24.80;60.20;;;;;;5092732;28;20127;-64
2022/08/15 02:31:21;;;;;;;7.70;5.60;;;24.80;60.20;;;;;;5092831;28;20509;-65
2022/08/15 02:33:55;;;;;;;7.13;5.22;;;24.80;60.30;;;;;;5109409;27;20502;-65
2022/08/15 02:36:21;;;;;;;6.47;5.38;;;24.80;60.30;;;;;;5092016;28;20044;-65
2022/08/15 02:38:49;;;;;;;6.63;5.43;;;24.80;60.30;;;;;;5093455;28;20055;-65
2022/08/15 02:41:28;;;;;;;7.50;6.05;;;24.80;60.40;;;;;;5091639;28;20079;-65
2022/08/15 02:43:53;;;;;;;7.03;5.35;;;24.80;60.40;;;;;;5092089;28;20281;-65
2022/08/15 02:46:19;;;;;;;6.55;5.20;;;24.80;60.40;;;;;;5092795;28;20071;-65
2022/08/15 02:48:46;;;;;;;7.07;5.55;;;24.80;60.40;;;;;;5092784;28;20058;-65
2022/08/15 02:51:13;;;;;;;8.07;5.65;;;24.80;60.50;;;;;;5092877;28;20036;-65
2022/08/15 02:53:38;;;;;;;7.32;5.38;;;24.80;60.50;;;;;;5092819;28;20044;-65
2022/08/15 02:56:06;;;;;;;7.80;5.45;;;24.80;60.50;;;;;;5091824;28;20502;-64
2022/08/15 02:58:33;;;;;;;9.20;5.50;;;24.80;60.50;;;;;;5092303;28;20040;-64
2022/08/15 03:00:59;;;;;;;7.47;5.50;;;24.80;60.50;;;;;;5092786;28;20040;-64
2022/08/15 03:03:26;;;;;;;7.57;5.65;;;24.80;60.60;;;;;;5091614;28;20506;-65
2022/08/15 03:05:52;;;;;;;6.53;5.35;;;24.80;60.60;;;;;;5092716;28;20067;-65
2022/08/15 03:08:17;;;;;;;6.70;5.50;;;24.80;60.60;;;;;;5092275;28;20043;-65
2022/08/15 03:10:43;;;;;;;7.47;5.50;;;24.80;60.60;;;;;;5092040;28;20093;-64
2022/08/15 03:13:13;;;;;;;7.50;5.90;;;24.80;60.70;;;;;;5092599;28;20101;-65
2022/08/15 03:15:44;;;;;;;6.63;5.30;;;24.80;60.60;;;;;;5092441;28;20115;-64
2022/08/15 03:18:10;;;;;;;7.25;5.38;;;24.80;60.70;;;;;;5092013;28;20047;-64
2022/08/15 03:20:36;;;;;;;6.90;5.47;;;24.80;60.70;;;;;;5092100;28;20546;-64
2022/08/15 03:23:04;;;;;;;9.70;5.75;;;24.80;60.70;;;;;;5092755;28;20044;-65
2022/08/15 03:25:30;;;;;;;8.98;5.30;;;24.70;60.70;;;;;;5091312;28;20134;-64
2022/08/15 03:27:56;;;;;;;6.30;5.47;;;24.70;60.70;;;;;;5091932;28;20139;-64
2022/08/15 03:30:22;;;;;;;6.90;5.38;;;24.80;60.80;;;;;;5091941;28;20051;-65
2022/08/15 03:32:56;;;;;;;7.45;5.18;;;24.70;60.80;;;;;;5091542;28;20052;-65
2022/08/15 03:35:23;;;;;;;7.32;5.97;;;24.80;60.80;;;;;;5092297;28;20047;-65
2022/08/15 03:37:48;;;;;;;6.93;5.10;;;24.70;60.80;;;;;;5092127;28;20396;-65
2022/08/15 03:40:14;;;;;;;7.30;5.35;;;24.70;60.80;;;;;;5091473;28;20040;-65
2022/08/15 03:43:10;;;;;;;7.78;5.35;;;24.70;60.80;;;;;;5091977;28;20487;-65
2022/08/15 03:45:35;;;;;;;7.28;5.25;;;24.70;60.80;;;;;;5090774;28;20519;-64
2022/08/15 03:48:01;;;;;;;7.80;5.53;;;24.70;60.80;;;;;;5092113;28;20040;-65
2022/08/15 03:50:28;;;;;;;8.15;5.88;;;24.70;60.90;;;;;;5090626;28;20036;-64
2022/08/15 03:53:04;;;;;;;6.80;5.35;;;24.70;60.90;;;;;;5091508;28;20044;-65
2022/08/15 03:55:31;;;;;;;6.63;5.25;;;24.70;60.90;;;;;;5092157;28;20044;-65
2022/08/15 03:57:57;;;;;;;7.07;5.15;;;24.70;60.90;;;;;;5092141;28;20047;-64
2022/08/15 04:00:25;;;;;;;7.15;5.38;;;24.70;60.90;;;;;;5090817;28;20463;-64
2022/08/15 04:02:51;;;;;;;;;;;24.70;60.90;;;;;;5092417;28;20040;-65
2022/08/15 04:05:17;;;;;;;7.50;5.70;;;24.70;60.90;;;;;;5090933;28;19920;-65
2022/08/15 04:07:42;;;;;;;7.72;5.95;;;24.70;60.90;;;;;;5090349;28;20402;-65
2022/08/15 04:10:17;;;;;;;6.93;5.10;;;24.60;60.90;;;;;;5094843;28;20051;-64
2022/08/15 04:12:43;;;;;;;7.15;5.32;;;24.70;61.00;;;;;;5095917;28;20028;-65
2022/08/15 04:15:10;;;;;;;7.00;5.53;;;24.60;60.90;;;;;;5095271;28;20126;-65
2022/08/15 04:17:37;;;;;;;7.32;5.07;;;24.70;61.00;;;;;;5095550;28;20115;-65
2022/08/15 04:20:03;;;;;;;6.90;5.35;;;24.70;61.00;;;;;;5095967;28;20048;-65
2022/08/15 04:22:34;;;;;;;7.20;5.80;;;24.70;61.00;;;;;;5094497;28;20384;-65
2022/08/15 04:25:13;;;;;;;8.55;5.75;;;24.70;61.10;;;;;;5096036;28;20119;-65
2022/08/15 04:27:39;;;;;;;7.22;6.05;;;24.70;61.00;;;;;;5094562;28;20073;-65
2022/08/15 04:30:05;;;;;;;7.25;5.82;;;24.70;61.10;;;;;;5095621;28;20048;-64
2022/08/15 04:32:31;;;;;;;8.40;6.00;;;24.70;61.10;;;;;;5095209;28;20040;-64
2022/08/15 04:34:58;;;;;;;8.60;5.75;;;24.70;61.20;;;;;;5094452;28;20043;-65
2022/08/15 04:37:25;;;;;;;6.67;5.43;;;24.60;61.00;;;;;;5095399;28;20056;-64
2022/08/15 04:39:50;;;;;;;7.20;5.70;;;24.60;61.00;;;;;;5095229;28;20313;-65
2022/08/15 04:42:19;;;;;;;9.25;5.95;;;24.60;61.00;;;;;;5094468;28;20403;-65
2022/08/15 04:44:48;;;;;;;8.90;5.80;;;24.60;61.10;;;;;;5095548;28;20048;-65
2022/08/15 04:47:14;;;;;;;7.60;6.03;;;24.60;61.10;;;;;;5095060;28;20055;-65
2022/08/15 04:49:40;;;;;;;8.90;5.97;;;24.60;61.00;;;;;;5094675;28;20482;-64
2022/08/15 04:52:10;;;;;;;8.82;5.93;;;24.70;61.10;;;;;;5095275;28;20036;-64
2022/08/15 04:54:36;;;;;;;7.85;5.78;;;24.60;61.10;;;;;;5095134;28;20040;-65
2022/08/15 04:57:01;;;;;;;7.70;5.63;;;24.60;61.10;;;;;;5093196;28;20047;-65
2022/08/15 04:59:27;;;;;;;7.75;5.72;;;24.60;61.00;;;;;;5094595;28;20394;-65
2022/08/15 05:01:53;;;;;;;6.63;5.40;;;24.60;61.10;;;;;;5094984;28;20130;-65
2022/08/15 05:04:19;;;;;;;8.63;6.47;;;24.60;61.10;;;;;;5094040;28;20044;-64
2022/08/15 05:06:45;;;;;;;8.57;6.22;;;24.60;61.10;;;;;;5095007;28;20058;-64
2022/08/15 05:09:10;;;;;;;7.70;5.80;;;24.60;61.10;;;;;;5094073;28;20040;-64
2022/08/15 05:11:36;;;;;;;8.05;6.47;;;24.60;61.10;;;;;;5093850;28;20044;-64
2022/08/15 05:14:02;;;;;;;8.05;5.93;;;24.60;61.10;;;;;;5094885;28;20088;-64
2022/08/15 05:16:28;;;;;;;7.75;6.15;;;24.60;61.10;;;;;;5093785;28;20400;-65
2022/08/15 05:18:53;;;;;;;7.65;6.07;;;24.60;61.10;;;;;;5094482;28;20089;-65
2022/08/15 05:21:18;;;;;;;7.97;6.30;;;24.60;61.10;;;;;;5094166;28;20048;-65
2022/08/15 05:23:44;;;;;;;8.38;6.60;;;24.60;61.10;;;;;;5093699;28;20047;-65
2022/08/15 05:26:10;;;;;;;9.20;6.55;;;24.60;61.10;;;;;;5094742;28;20044;-65
2022/08/15 05:28:36;;;;;;;8.25;6.80;;;24.60;61.10;;;;;;5093825;28;20138;-65
2022/08/15 05:31:03;;;;;;;8.23;6.20;;;24.60;61.10;;;;;;5093531;28;20120;-64
2022/08/15 05:33:29;;;;;;;7.22;5.85;;;24.60;61.10;;;;;;5094281;28;20051;-65
2022/08/15 05:35:56;;;;;;;9.45;6.95;;;24.60;61.10;;;;;;5094468;28;20051;-64
2022/08/15 05:38:25;;;;;;;8.03;6.63;;;24.60;61.10;;;;;;5093256;28;20446;-65
2022/08/15 05:40:56;;;;;;;7.68;6.07;;;24.60;61.10;;;;;;5094229;28;20507;-64
2022/08/15 05:43:37;;;;;;;8.73;6.38;;;24.60;61.10;;;;;;5092830;28;20044;-65
2022/08/15 05:46:32;;;;;;;9.00;6.35;;;24.60;61.10;;;;;;5076834;28;20036;-65
2022/08/15 05:49:35;;;;;;;8.02;6.30;;;24.60;61.10;;;;;;5094103;28;20040;-64
2022/08/15 05:52:42;;;;;;;12.20;8.30;;;24.60;61.10;;;;;;5090229;28;20076;-66
2022/08/15 05:55:57;;;;;;;11.30;8.60;;;24.50;61.30;;;;;;5093081;28;20044;-66
2022/08/15 05:58:41;;;;;;;11.25;9.05;;;24.50;61.40;;;;;;5061946;28;20079;-65
2022/08/15 06:01:33;;;;;;;11.93;8.77;;;24.50;61.70;;;;;;5093274;28;20577;-65
2022/08/15 06:04:08;;;;;;;10.60;8.77;;;24.40;62.00;;;;;;5092262;28;20051;-65
2022/08/15 06:06:35;;;;;;;11.77;8.90;;;24.30;62.10;;;;;;5093077;28;20411;-66
2022/08/15 06:09:04;;;;;;;11.95;8.70;;;24.30;62.30;;;;;;5093059;28;20058;-65
2022/08/15 06:11:37;;;;;;;11.52;9.35;;;24.30;62.50;;;;;;5092760;28;20111;-65
2022/08/15 06:14:31;;;;;;;13.55;8.90;;;24.30;62.70;;;;;;5092243;28;20043;-65
2022/08/15 06:17:04;;;;;;;11.90;8.90;;;24.20;62.90;;;;;;5075748;28;20119;-67
2022/08/15 06:19:34;;;;;;;12.40;9.20;;;24.20;63.10;;;;;;5092537;28;20051;-65
2022/08/15 06:22:32;;;;;;;10.98;8.63;;;24.20;63.20;;;;;;5091384;28;20043;-65
2022/08/15 06:25:03;;;;;;;14.60;9.05;;;24.20;63.30;;;;;;5094034;28;20123;-66
2022/08/15 06:27:42;;;;;;;11.75;9.35;;;24.20;63.40;;;;;;5091175;28;20064;-66
2022/08/15 06:30:19;;;;;;;11.45;9.10;;;24.10;63.50;;;;;;5092689;28;20040;-65
2022/08/15 06:33:02;;;;;;;12.38;9.13;;;24.20;63.80;;;;;;5092005;28;20047;-66
2022/08/15 06:35:30;;;;;;;13.48;10.18;;;24.10;63.70;;;;;;5092539;28;20044;-65
2022/08/15 06:37:58;;;;;;;14.90;10.23;;;24.10;63.70;;;;;;5093417;28;20475;-64
2022/08/15 06:40:31;;;;;;;12.00;8.73;;;24.10;63.80;;;;;;5091891;28;20447;-65
2022/08/15 06:42:57;;;;;;;13.60;9.88;;;24.10;63.90;;;;;;5090297;28;20491;-63
2022/08/15 06:45:49;;;;;;;13.40;9.27;;;24.10;64.10;;;;;;5090934;28;20047;-64
2022/08/15 06:48:24;;;;;;;12.57;9.35;;;24.10;64.30;;;;;;5087451;28;20867;-63
2022/08/15 06:50:54;;;;;;;11.98;9.23;;;24.10;64.50;;;;;;5075461;28;20040;-63
2022/08/15 06:53:25;;;;;;;13.98;8.75;;;24.10;64.50;;;;;;5092841;28;20036;-65
2022/08/15 06:55:56;;;;;;;11.20;8.48;;;24.20;64.70;;;;;;5074859;28;20400;-63
2022/08/15 06:58:44;;;;;;;12.13;8.48;;;24.20;64.80;;;;;;5075595;28;20040;-64
2022/08/15 07:01:31;;;;;;;9.63;8.27;;;24.20;64.90;;;;;;5093141;28;20046;-64
2022/08/15 07:04:13;;;;;;;10.05;8.93;;;24.10;64.80;;;;;;5091190;28;20048;-64
2022/08/15 07:06:45;;;;;;;11.07;8.80;;;24.20;64.90;;;;;;5075617;28;20497;-64
2022/08/15 07:09:40;;;;;;;12.73;8.68;;;24.20;65.00;;;;;;5090884;28;20545;-65
2022/08/15 07:12:24;;;;;;;12.50;7.88;;;24.20;64.90;;;;;;5070904;28;20052;-65
2022/08/15 07:15:04;;;;;;;11.57;7.68;;;24.20;64.70;;;;;;5074018;28;20104;-66
2022/08/15 07:17:41;;;;;;;10.88;8.23;;;24.20;64.50;;;;;;5089842;28;20043;-66
2022/08/15 07:20:07;;;;;;;10.57;7.60;;;24.20;64.40;;;;;;5075843;28;20083;-66
2022/08/15 07:22:34;;;;;;;9.73;7.43;;;24.20;64.20;;;;;;5090068;28;20071;-68
2022/08/15 07:24:59;;;;;;;10.30;7.80;;;24.30;64.30;;;;;;5089490;28;20036;-66
2022/08/15 07:27:36;;;;;;;10.88;7.95;;;24.30;64.30;;;;;;5089481;28;20058;-66
2022/08/15 07:30:14;;;;;;;10.70;7.55;;;24.30;64.20;;;;;;5091953;28;20051;-66
2022/08/15 07:32:40;;;;;;;;;;;24.30;64.20;;;;;;5091382;28;20093;-66
2022/08/15 07:35:15;;;;;;;10.45;7.60;;;24.30;64.20;;;;;;5092023;28;19923;-66
2022/08/15 07:37:47;;;;;;;11.80;8.32;;;24.30;64.50;;;;;;5090808;28;20052;-65
2022/08/15 07:40:12;;;;;;;11.07;8.35;;;24.30;64.40;;;;;;5091957;28;20488;-65
2022/08/15 07:42:41;;;;;;;12.23;8.35;;;24.30;64.50;;;;;;5091832;28;20048;-66
2022/08/15 07:45:17;;;;;;;11.98;8.65;;;24.40;64.60;;;;;;5095423;28;20040;-72
2022/08/15 07:47:57;;;;;;;13.60;7.97;;;24.40;64.70;;;;;;5094802;28;20083;-66
2022/08/15 07:50:48;;;;;;;13.13;9.18;;;24.40;64.60;;;;;;5095940;28;20394;-66
2022/08/15 07:53:32;;;;;;;18.17;8.80;;;24.40;64.60;;;;;;5073829;28;20391;-67
2022/08/15 07:56:13;;;;;;;11.55;8.13;;;24.50;64.50;;;;;;5095100;28;20036;-67
2022/08/15 07:58:41;;;;;;;11.45;7.97;;;24.50;64.40;;;;;;5095526;28;20047;-67
2022/08/15 08:01:27;;;;;;;11.17;8.87;;;24.50;64.30;;;;;;5077885;28;20052;-67
2022/08/15 08:04:09;;;;;;;9.20;8.18;;;24.50;64.40;;;;;;5096008;28;20396;-66
2022/08/15 08:07:00;;;;;;;16.10;8.85;;;24.50;64.30;;;;;;5076965;28;20438;-66
2022/08/15 08:09:35;;;;;;;11.70;8.07;;;24.50;64.30;;;;;;5089744;28;20398;-67
2022/08/15 08:12:07;;;;;;;10.82;7.85;;;24.50;64.40;;;;;;5094697;28;20407;-66
2022/08/15 08:14:42;;;;;;;12.32;8.20;;;24.50;64.50;;;;;;5093752;28;20164;-67
2022/08/15 08:17:26;;;;;;;11.30;8.10;;;24.60;64.50;;;;;;5094650;28;20111;-66
2022/08/15 08:20:03;;;;;;;12.85;7.68;;;24.60;64.20;;;;;;5095077;28;20036;-66
2022/08/15 08:22:50;;;;;;;12.97;8.57;;;24.60;64.10;;;;;;5092394;28;20044;-63
2022/08/15 08:25:49;;;;;;;10.55;7.38;;;24.60;64.10;;;;;;5094067;28;20059;-63
2022/08/15 08:28:30;;;;;;;10.30;7.60;;;24.70;64.00;;;;;;5078537;28;20055;-63
2022/08/15 08:31:10;;;;;;;10.27;7.72;;;24.70;64.00;;;;;;5082227;28;20407;-63
2022/08/15 08:33:54;;;;;;;9.55;7.38;;;24.70;63.90;;;;;;5077317;28;20048;-63
2022/08/15 08:36:31;;;;;;;10.70;7.05;;;24.80;63.90;;;;;;5094073;28;20056;-64
2022/08/15 08:39:12;;;;;;;9.80;7.00;;;24.80;63.90;;;;;;5094003;28;20089;-63
2022/08/15 08:42:01;;;;;;;10.15;7.55;;;24.80;63.80;;;;;;5093242;28;20123;-63
2022/08/15 08:44:38;;;;;;;9.85;7.25;;;24.80;63.70;;;;;;5093804;28;20040;-62
2022/08/15 08:47:24;;;;;;;8.02;6.55;;;24.80;63.70;;;;;;5094938;28;20568;-62
2022/08/15 08:49:53;;;;;;;8.98;7.05;;;24.90;63.60;;;;;;5094630;28;20044;-61
2022/08/15 08:52:32;;;;;;;8.10;6.35;;;24.90;63.50;;;;;;5093927;28;20036;-61
2022/08/15 08:55:10;;;;;;;9.35;6.53;;;24.90;63.50;;;;;;5109734;27;20080;-61
2022/08/15 08:57:40;;;;;;;8.63;6.38;;;24.90;63.40;;;;;;5093474;28;20514;-61
2022/08/15 09:00:37;;;;;;;8.05;6.43;;;24.90;63.40;;;;;;5093940;28;20082;-61
2022/08/15 09:03:17;;;;;;;8.02;6.65;;;24.90;63.30;;;;;;5078887;28;20602;-61
2022/08/15 09:05:49;;;;;;;8.13;6.15;;;24.90;63.30;;;;;;5095061;28;20051;-65
2022/08/15 09:08:42;;;;;;;9.40;7.07;;;25.00;63.30;;;;;;5094520;28;20046;-62
2022/08/15 09:11:28;;;;;;;8.10;6.22;;;25.00;63.30;;;;;;5112389;27;20122;-61
2022/08/15 09:13:57;;;;;;;9.88;6.90;;;25.00;63.20;;;;;;5093659;28;20059;-61
2022/08/15 09:16:32;;;;;;;8.32;6.60;;;25.00;63.20;;;;;;5092671;28;20040;-61
2022/08/15 09:19:03;;;;;;;9.30;6.47;;;25.00;63.20;;;;;;5094885;28;20131;-61
2022/08/15 09:21:29;;;;;;;8.20;6.70;;;25.00;63.10;;;;;;5110738;27;20096;-63
2022/08/15 09:23:56;;;;;;;8.23;6.00;;;25.10;63.10;;;;;;5093845;28;20048;-62
2022/08/15 09:26:40;;;;;;;8.80;6.18;;;25.10;63.20;;;;;;5094083;28;20032;-62
2022/08/15 09:29:18;;;;;;;7.75;6.13;;;25.10;63.30;;;;;;5093376;28;20108;-61
2022/08/15 09:31:44;;;;;;;9.55;6.60;;;25.10;63.30;;;;;;5101952;28;20036;-61
2022/08/15 09:34:35;;;;;;;8.20;6.43;;;25.10;63.60;;;;;;5110458;28;20044;-62
2022/08/15 09:37:25;;;;;;;8.20;6.38;;;25.10;63.90;;;;;;5073503;28;20373;-62
2022/08/15 09:40:25;;;;;;;9.07;6.35;;;25.10;63.70;;;;;;5092962;28;20484;-62
2022/08/15 09:43:19;;;;;;;10.02;6.60;;;25.10;63.60;;;;;;5094031;28;20067;-61
2022/08/15 09:46:14;;;;;;;8.93;6.47;;;25.20;63.80;;;;;;5092304;28;20116;-64
2022/08/15 09:49:11;;;;;;;9.02;6.68;;;25.20;63.90;;;;;;5092906;28;20055;-68
2022/08/15 09:52:01;;;;;;;8.73;6.60;;;25.20;64.10;;;;;;5092083;28;20390;-61
2022/08/15 09:54:29;;;;;;;9.60;7.28;;;25.20;65.00;;;;;;5092684;28;20483;-62
2022/08/15 09:57:31;;;;;;;9.25;6.30;;;25.20;64.50;;;;;;5092841;28;20040;-62
2022/08/15 10:00:04;;;;;;;8.40;6.88;;;25.20;64.50;;;;;;5091564;28;20479;-63
2022/08/15 10:02:34;;;;;;;8.75;7.05;;;25.10;64.40;;;;;;5092291;28;20044;-63
2022/08/15 10:05:13;;;;;;;11.27;7.43;;;25.10;64.40;;;;;;5075215;28;20047;-67
2022/08/15 10:07:55;;;;;;;8.32;6.32;;;25.10;64.90;;;;;;5091265;28;20484;-63
2022/08/15 10:10:22;;;;;;;8.40;6.68;;;25.20;65.10;;;;;;5093291;28;20036;-64
2022/08/15 10:13:06;;;;;;;10.00;6.97;;;25.10;65.00;;;;;;5092748;28;20079;-65
2022/08/15 10:15:44;;;;;;;8.50;6.50;;;25.20;65.00;;;;;;5091439;28;20032;-66
2022/08/15 10:18:30;;;;;;;9.35;7.10;;;25.10;65.20;;;;;;5090625;28;20050;-66
2022/08/15 10:20:56;;;;;;;9.65;7.28;;;25.10;65.50;;;;;;5061160;28;20047;-67
2022/08/15 10:23:37;;;;;;;7.85;6.00;;;25.20;65.80;;;;;;5093079;28;20561;-65
2022/08/15 10:26:19;;;;;;;9.27;6.75;;;25.20;65.90;;;;;;5091691;28;20044;-65
2022/08/15 10:29:04;;;;;;;9.95;6.65;;;25.20;65.70;;;;;;5091820;28;20056;-65
2022/08/15 10:31:41;;;;;;;9.75;6.57;;;25.20;65.50;;;;;;5091901;28;20541;-65
2022/08/15 10:34:17;;;;;;;9.57;7.40;;;25.20;65.50;;;;;;5091609;28;20043;-65
2022/08/15 10:36:43;;;;;;;8.73;6.10;;;25.20;65.40;;;;;;5076373;28;20040;-65
2022/08/15 10:39:29;;;;;;;9.05;6.60;;;25.20;65.40;;;;;;5058176;28;20115;-65
2022/08/15 10:41:59;;;;;;;8.38;6.63;;;25.20;65.30;;;;;;5091143;28;20048;-65
2022/08/15 10:44:53;;;;;;;8.45;6.30;;;25.20;65.30;;;;;;5091567;28;20093;-65
2022/08/15 10:47:37;;;;;;;8.57;6.53;;;25.20;65.20;;;;;;5090498;28;20051;-64
2022/08/15 10:50:14;;;;;;;9.73;6.80;;;25.20;65.30;;;;;;5076223;28;20044;-65
2022/08/15 10:53:12;;;;;;;11.02;6.70;;;25.20;65.30;;;;;;5093307;28;20055;-65
2022/08/15 10:55:39;;;;;;;8.23;6.57;;;25.20;65.40;;;;;;5086435;28;20063;-66
2022/08/15 10:58:09;;;;;;;8.38;6.53;;;25.20;65.50;;;;;;5092942;28;20047;-67
2022/08/15 11:00:58;;;;;;;8.52;6.80;;;25.20;65.60;;;;;;5092338;28;20582;-65
2022/08/15 11:03:26;;;;;;;9.20;6.43;;;25.20;65.60;;;;;;5090706;28;20048;-65
2022/08/15 11:05:53;;;;;;;;;;;25.20;65.60;;;;;;5093325;28;20165;-66
2022/08/15 11:08:19;;;;;;;8.50;6.07;;;25.20;65.50;;;;;;5091886;28;20412;-65
2022/08/15 11:10:44;;;;;;;8.85;6.45;;;25.20;65.50;;;;;;5074598;28;20047;-65
2022/08/15 11:13:15;;;;;;;8.52;6.53;;;25.20;65.50;;;;;;5091517;28;20074;-66
2022/08/15 11:15:54;;;;;;;7.97;6.53;;;25.20;65.50;;;;;;5090907;28;20490;-66
2022/08/15 11:18:25;;;;;;;7.95;6.88;;;25.20;65.50;;;;;;5090742;28;20075;-66
2022/08/15 11:20:53;;;;;;;8.88;6.97;;;25.30;65.60;;;;;;5092537;28;20048;-66
2022/08/15 11:23:39;;;;;;;8.45;6.57;;;25.30;65.60;;;;;;5090079;28;20090;-66
2022/08/15 11:26:06;;;;;;;8.73;6.50;;;25.30;65.50;;;;;;5092644;28;20527;-65
2022/08/15 11:28:33;;;;;;;7.90;6.18;;;25.30;65.50;;;;;;5090430;28;20471;-65
2022/08/15 11:31:04;;;;;;;8.40;6.72;;;25.30;65.50;;;;;;5090221;28;20051;-66
2022/08/15 11:33:41;;;;;;;8.50;6.95;;;25.30;65.50;;;;;;5092120;28;20520;-66
2022/08/15 11:36:11;;;;;;;7.32;6.30;;;25.30;65.50;;;;;;5092485;28;20055;-66
2022/08/15 11:38:41;;;;;;;8.48;6.90;;;25.40;65.50;;;;;;5090329;28;20042;-66
2022/08/15 11:41:07;;;;;;;9.48;6.40;;;25.40;65.50;;;;;;5091033;28;20048;-66
2022/08/15 11:43:32;;;;;;;7.95;6.57;;;25.40;65.40;;;;;;5089589;28;20044;-66
2022/08/15 11:45:58;;;;;;;8.05;6.55;;;25.40;65.30;;;;;;5090973;28;20044;-66
2022/08/15 11:48:33;;;;;;;8.80;7.20;;;25.40;65.90;;;;;;5090357;28;20052;-66
2022/08/15 11:51:09;;;;;;;8.65;6.55;;;25.40;65.20;;;;;;5090844;28;20042;-66
2022/08/15 11:53:58;;;;;;;9.10;6.82;;;25.50;65.30;;;;;;5092152;28;20115;-66
2022/08/15 11:56:24;;;;;;;12.18;7.40;;;25.50;65.40;;;;;;5090447;28;20040;-66
2022/08/15 11:58:50;;;;;;;8.27;6.40;;;25.50;65.40;;;;;;5091787;28;20047;-66
2022/08/15 12:01:22;;;;;;;7.65;6.43;;;25.50;65.20;;;;;;5091149;28;20051;-66
2022/08/15 12:04:06;;;;;;;7.47;6.25;;;25.50;65.20;;;;;;5074240;28;20048;-65
2022/08/15 12:06:33;;;;;;;9.23;6.63;;;25.50;65.20;;;;;;5090282;28;20072;-66
2022/08/15 12:09:26;;;;;;;10.23;7.35;;;25.50;65.10;;;;;;5091365;28;20492;-66
2022/08/15 12:11:52;;;;;;;9.30;7.00;;;25.50;65.00;;;;;;5090062;28;20056;-65
2022/08/15 12:14:25;;;;;;;8.45;7.40;;;25.50;65.00;;;;;;5092207;28;20040;-66
2022/08/15 12:16:54;;;;;;;14.63;9.02;;;25.50;65.00;;;;;;5088367;28;20046;-67
2022/08/15 12:19:39;;;;;;;14.48;8.18;;;25.50;64.90;;;;;;5090354;28;20059;-67
2022/08/15 12:22:08;;;;;;;15.05;8.15;;;25.60;64.80;;;;;;5091769;28;20044;-67
2022/08/15 12:24:35;;;;;;;13.45;9.25;;;25.50;64.80;;;;;;5073492;28;20048;-66
2022/08/15 12:27:01;;;;;;;15.40;8.85;;;25.60;64.90;;;;;;5090111;28;20048;-67
2022/08/15 12:29:28;;;;;;;12.77;8.68;;;25.60;65.00;;;;;;5088825;28;20514;-68
2022/08/15 12:31:53;;;;;;;13.17;7.80;;;25.60;65.00;;;;;;5095269;28;20044;-68
2022/08/15 12:34:23;;;;;;;12.43;7.90;;;25.60;65.00;;;;;;5094624;28;20043;-67
2022/08/15 12:36:49;;;;;;;16.70;9.18;;;25.60;65.00;;;;;;5095919;28;20032;-68
2022/08/15 12:39:16;;;;;;;16.73;8.85;;;25.60;65.10;;;;;;5095336;28;20411;-67
2022/08/15 12:41:43;;;;;;;13.57;8.52;;;25.60;65.00;;;;;;5094716;28;20046;-67
2022/08/15 12:44:15;;;;;;;14.45;8.63;;;25.60;65.10;;;;;;5094181;28;20048;-67
2022/08/15 12:46:41;;;;;;;11.43;8.70;;;25.60;65.10;;;;;;5060347;28;20074;-67
2022/08/15 12:49:06;;;;;;;14.65;8.57;;;25.60;65.10;;;;;;5128093;27;20044;-67
2022/08/15 12:51:32;;;;;;;13.68;8.90;;;25.60;65.10;;;;;;5093471;28;20099;-65
2022/08/15 12:53:58;;;;;;;14.38;9.07;;;25.60;65.10;;;;;;5094614;28;20044;-66
2022/08/15 12:56:24;;;;;;;13.40;8.65;;;25.60;65.10;;;;;;5093805;28;20048;-67
2022/08/15 12:58:50;;;;;;;14.27;8.65;;;25.60;65.20;;;;;;5092847;28;20480;-66
2022/08/15 13:01:16;;;;;;;10.70;8.18;;;25.60;65.20;;;;;;5092463;28;20122;-65
2022/08/15 13:03:42;;;;;;;12.93;8.60;;;25.60;65.20;;;;;;5094735;28;20130;-65
2022/08/15 13:06:14;;;;;;;13.10;9.07;;;25.60;65.20;;;;;;5095000;28;20040;-66
2022/08/15 13:08:41;;;;;;;12.85;8.95;;;25.60;65.30;;;;;;5093011;28;20047;-64
2022/08/15 13:11:08;;;;;;;15.20;8.95;;;25.60;65.30;;;;;;5094650;28;20046;-71
2022/08/15 13:13:33;;;;;;;14.65;9.05;;;25.60;65.30;;;;;;5092735;28;20048;-65